Terminal Aerodrome Forecast
Issued by NWS Omaha/Valley, NE

Home | Current Version | Previous Version | Graphics & Text | Print | Product List | Glossary On
Versions: 1 2 3 4 5 6 7 8 9 10 11 12 13 14 15 16 17 18 19 20 21 22 23 24 25 26 27 28 29 30 31 32 33 34 35 36 37 38 39 40 41
000
FTUS43 KOAX 060520
TAFOFK
TAF
KOFK 060520Z 0606/0706 14015KT P6SM BKN200
      TEMPO 0606/0610 4SM -TSRA BKN035CB
     FM061000 20013KT 5SM -SHRA OVC040
     FM061400 35014KT P6SM BKN040
      TEMPO 0614/0618 -SHRA
     FM061800 35018G25KT P6SM OVC035
     FM062100 36015G25KT P6SM BKN100
     FM070200 35006KT P6SM SKC=

USA.gov is the U.S. government's official web portal to all federal, state and local government web resources and services.